Berkeley Lake, Georgia
Current Conditions -  °F | °C
As of 10:45 AM on Saturday 20 Dec 2014 (Local Time) from KLZU Reporting Station
Haze Haze  
Wind Chill: 44°   Ceiling: 3300
Heat Index: 46°   Visibility: 4mi
Dew Point: 37°   Wind: 6mph
Humidity: 71%   Direction: 50°NE
Pressure: 30.2"   Gusts: NA
Location:  33.9805°N, 84.1528°W
Report Text: KLZU 201545Z 05005KT 4SM BR SCT008 OVC033 08/03 A3020 RMK ATIS U RWY 7 JW
Loading
Personal Weather Stations






























Interactive Weather Map New forecast layout! Learn more

10-Day Weather Forecast

Advertisements
Track Severe Weather on mobile